sensor_id;sensor_type;location;lat;lon;timestamp;P1;durP1;ratioP1;P2;durP2;ratioP2
59440;SDS011;45245;51.538;11.870;2022-09-09T00:00:13;1.90;;;1.50;;
59440;SDS011;45245;51.538;11.870;2022-09-09T00:02:42;1.83;;;1.73;;
59440;SDS011;45245;51.538;11.870;2022-09-09T00:06:15;1.70;;;1.60;;
59440;SDS011;45245;51.538;11.870;2022-09-09T00:08:34;1.67;;;1.58;;
59440;SDS011;45245;51.538;11.870;2022-09-09T00:11:02;1.33;;;1.23;;
59440;SDS011;45245;51.538;11.870;2022-09-09T00:14:03;1.45;;;1.35;;
59440;SDS011;45245;51.538;11.870;2022-09-09T00:16:24;1.50;;;1.40;;
59440;SDS011;45245;51.538;11.870;2022-09-09T00:18:53;1.90;;;1.77;;
59440;SDS011;45245;51.538;11.870;2022-09-09T00:21:41;2.40;;;1.25;;
59440;SDS011;45245;51.538;11.870;2022-09-09T00:24:11;1.50;;;1.40;;
59440;SDS011;45245;51.538;11.870;2022-09-09T00:27:08;2.35;;;1.50;;
59440;SDS011;45245;51.538;11.870;2022-09-09T00:32:41;3.78;;;1.40;;
59440;SDS011;45245;51.538;11.870;2022-09-09T00:35:17;1.88;;;1.40;;
59440;SDS011;45245;51.538;11.870;2022-09-09T00:37:59;1.35;;;1.20;;
59440;SDS011;45245;51.538;11.870;2022-09-09T00:43:21;1.63;;;1.50;;
59440;SDS011;45245;51.538;11.870;2022-09-09T00:51:50;5.05;;;1.65;;
59440;SDS011;45245;51.538;11.870;2022-09-09T01:02:31;2.92;;;1.30;;
59440;SDS011;45245;51.538;11.870;2022-09-09T01:05:03;1.95;;;1.45;;
59440;SDS011;45245;51.538;11.870;2022-09-09T01:07:32;1.67;;;1.30;;
59440;SDS011;45245;51.538;11.870;2022-09-09T01:09:58;2.30;;;1.45;;
59440;SDS011;45245;51.538;11.870;2022-09-09T01:26:18;1.27;;;1.17;;
59440;SDS011;45245;51.538;11.870;2022-09-09T01:28:54;1.77;;;1.35;;
59440;SDS011;45245;51.538;11.870;2022-09-09T01:31:38;3.45;;;1.50;;
59440;SDS011;45245;51.538;11.870;2022-09-09T01:34:25;1.63;;;1.52;;
59440;SDS011;45245;51.538;11.870;2022-09-09T01:37:00;2.05;;;1.38;;
59440;SDS011;45245;51.538;11.870;2022-09-09T01:39:29;1.25;;;1.13;;
59440;SDS011;45245;51.538;11.870;2022-09-09T01:41:55;1.48;;;1.38;;
59440;SDS011;45245;51.538;11.870;2022-09-09T01:44:21;1.50;;;1.40;;
59440;SDS011;45245;51.538;11.870;2022-09-09T01:46:46;1.50;;;1.40;;
59440;SDS011;45245;51.538;11.870;2022-09-09T01:49:12;1.38;;;1.27;;
59440;SDS011;45245;51.538;11.870;2022-09-09T01:51:37;1.40;;;1.30;;
59440;SDS011;45245;51.538;11.870;2022-09-09T01:54:04;1.40;;;1.30;;
59440;SDS011;45245;51.538;11.870;2022-09-09T02:02:03;1.45;;;1.17;;
59440;SDS011;45245;51.538;11.870;2022-09-09T02:04:54;1.20;;;1.10;;
59440;SDS011;45245;51.538;11.870;2022-09-09T02:07:29;2.47;;;1.30;;
59440;SDS011;45245;51.538;11.870;2022-09-09T02:10:10;2.03;;;1.50;;
59440;SDS011;45245;51.538;11.870;2022-09-09T02:12:41;1.45;;;1.15;;
59440;SDS011;45245;51.538;11.870;2022-09-09T02:15:17;2.03;;;1.13;;
59440;SDS011;45245;51.538;11.870;2022-09-09T02:17:52;2.30;;;1.27;;
59440;SDS011;45245;51.538;11.870;2022-09-09T02:20:19;1.55;;;1.45;;
59440;SDS011;45245;51.538;11.870;2022-09-09T02:22:45;1.73;;;1.63;;
59440;SDS011;45245;51.538;11.870;2022-09-09T02:25:14;2.65;;;1.50;;
59440;SDS011;45245;51.538;11.870;2022-09-09T02:27:43;2.55;;;1.45;;
59440;SDS011;45245;51.538;11.870;2022-09-09T02:30:10;1.30;;;1.20;;
59440;SDS011;45245;51.538;11.870;2022-09-09T02:32:36;2.55;;;1.50;;
59440;SDS011;45245;51.538;11.870;2022-09-09T02:35:07;1.20;;;1.10;;
59440;SDS011;45245;51.538;11.870;2022-09-09T02:37:36;3.33;;;1.38;;
59440;SDS011;45245;51.538;11.870;2022-09-09T02:40:04;2.92;;;1.23;;
59440;SDS011;45245;51.538;11.870;2022-09-09T02:42:31;1.00;;;1.00;;
59440;SDS011;45245;51.538;11.870;2022-09-09T02:44:56;1.55;;;1.20;;
59440;SDS011;45245;51.538;11.870;2022-09-09T02:50:02;1.20;;;1.10;;
59440;SDS011;45245;51.538;11.870;2022-09-09T02:52:38;1.10;;;1.08;;
59440;SDS011;45245;51.538;11.870;2022-09-09T02:58:01;1.55;;;1.35;;
59440;SDS011;45245;51.538;11.870;2022-09-09T03:00:29;1.70;;;1.60;;
59440;SDS011;45245;51.538;11.870;2022-09-09T03:03:05;1.27;;;1.17;;
59440;SDS011;45245;51.538;11.870;2022-09-09T03:08:12;1.65;;;1.55;;
59440;SDS011;45245;51.538;11.870;2022-09-09T03:10:38;1.20;;;1.10;;
59440;SDS011;45245;51.538;11.870;2022-09-09T03:13:05;1.67;;;1.05;;
59440;SDS011;45245;51.538;11.870;2022-09-09T03:15:31;1.30;;;1.20;;
59440;SDS011;45245;51.538;11.870;2022-09-09T03:17:57;1.40;;;1.30;;
59440;SDS011;45245;51.538;11.870;2022-09-09T03:20:24;1.67;;;1.45;;
59440;SDS011;45245;51.538;11.870;2022-09-09T03:22:52;0.90;;;0.90;;
59440;SDS011;45245;51.538;11.870;2022-09-09T03:25:18;1.45;;;1.15;;
59440;SDS011;45245;51.538;11.870;2022-09-09T03:27:44;1.58;;;1.38;;
59440;SDS011;45245;51.538;11.870;2022-09-09T03:30:09;1.40;;;1.30;;
59440;SDS011;45245;51.538;11.870;2022-09-09T03:32:38;1.50;;;1.30;;
59440;SDS011;45245;51.538;11.870;2022-09-09T03:35:05;1.85;;;1.20;;
59440;SDS011;45245;51.538;11.870;2022-09-09T03:37:31;1.88;;;1.38;;
59440;SDS011;45245;51.538;11.870;2022-09-09T03:39:56;1.92;;;1.20;;
59440;SDS011;45245;51.538;11.870;2022-09-09T03:42:22;1.75;;;1.65;;
59440;SDS011;45245;51.538;11.870;2022-09-09T03:44:47;4.43;;;1.58;;
59440;SDS011;45245;51.538;11.870;2022-09-09T03:47:17;1.23;;;1.15;;
59440;SDS011;45245;51.538;11.870;2022-09-09T03:49:48;1.90;;;1.48;;
59440;SDS011;45245;51.538;11.870;2022-09-09T03:52:14;1.20;;;1.10;;
59440;SDS011;45245;51.538;11.870;2022-09-09T03:54:40;1.77;;;1.30;;
59440;SDS011;45245;51.538;11.870;2022-09-09T03:57:08;1.15;;;1.00;;
59440;SDS011;45245;51.538;11.870;2022-09-09T03:59:36;2.35;;;1.33;;
59440;SDS011;45245;51.538;11.870;2022-09-09T04:02:02;3.15;;;1.20;;
59440;SDS011;45245;51.538;11.870;2022-09-09T04:04:27;2.00;;;1.50;;
59440;SDS011;45245;51.538;11.870;2022-09-09T04:06:53;1.85;;;1.35;;
59440;SDS011;45245;51.538;11.870;2022-09-09T04:09:18;3.80;;;1.20;;
59440;SDS011;45245;51.538;11.870;2022-09-09T04:11:44;1.50;;;1.20;;
59440;SDS011;45245;51.538;11.870;2022-09-09T04:14:10;1.60;;;1.35;;
59440;SDS011;45245;51.538;11.870;2022-09-09T04:16:36;1.33;;;1.20;;
59440;SDS011;45245;51.538;11.870;2022-09-09T04:19:03;1.70;;;1.48;;
59440;SDS011;45245;51.538;11.870;2022-09-09T04:21:29;3.20;;;1.33;;
59440;SDS011;45245;51.538;11.870;2022-09-09T04:23:55;1.33;;;1.23;;
59440;SDS011;45245;51.538;11.870;2022-09-09T04:26:20;2.22;;;1.25;;
59440;SDS011;45245;51.538;11.870;2022-09-09T04:28:45;1.92;;;1.60;;
59440;SDS011;45245;51.538;11.870;2022-09-09T04:31:21;2.40;;;1.60;;
59440;SDS011;45245;51.538;11.870;2022-09-09T04:33:48;1.23;;;1.20;;
59440;SDS011;45245;51.538;11.870;2022-09-09T04:36:14;1.70;;;1.60;;
59440;SDS011;45245;51.538;11.870;2022-09-09T04:38:39;1.55;;;1.45;;
59440;SDS011;45245;51.538;11.870;2022-09-09T04:41:05;1.70;;;1.60;;
59440;SDS011;45245;51.538;11.870;2022-09-09T04:43:31;1.20;;;1.17;;
59440;SDS011;45245;51.538;11.870;2022-09-09T04:45:56;1.40;;;1.30;;
59440;SDS011;45245;51.538;11.870;2022-09-09T04:48:24;1.17;;;1.10;;
59440;SDS011;45245;51.538;11.870;2022-09-09T04:50:57;2.17;;;1.63;;
59440;SDS011;45245;51.538;11.870;2022-09-09T04:53:23;1.50;;;1.40;;
59440;SDS011;45245;51.538;11.870;2022-09-09T04:55:50;1.33;;;1.23;;
59440;SDS011;45245;51.538;11.870;2022-09-09T04:58:16;1.67;;;1.50;;
59440;SDS011;45245;51.538;11.870;2022-09-09T05:00:42;1.63;;;1.52;;
59440;SDS011;45245;51.538;11.870;2022-09-09T05:03:07;2.70;;;1.52;;
59440;SDS011;45245;51.538;11.870;2022-09-09T05:05:34;1.30;;;1.20;;
59440;SDS011;45245;51.538;11.870;2022-09-09T05:08:03;1.10;;;1.00;;
59440;SDS011;45245;51.538;11.870;2022-09-09T05:10:31;1.58;;;1.25;;
59440;SDS011;45245;51.538;11.870;2022-09-09T05:12:57;1.60;;;1.50;;
59440;SDS011;45245;51.538;11.870;2022-09-09T05:15:22;1.55;;;1.45;;
59440;SDS011;45245;51.538;11.870;2022-09-09T05:17:48;1.67;;;1.10;;
59440;SDS011;45245;51.538;11.870;2022-09-09T05:20:13;2.08;;;1.42;;
59440;SDS011;45245;51.538;11.870;2022-09-09T05:22:38;1.20;;;1.17;;
59440;SDS011;45245;51.538;11.870;2022-09-09T05:25:04;1.95;;;1.50;;
59440;SDS011;45245;51.538;11.870;2022-09-09T05:27:29;1.38;;;1.27;;
59440;SDS011;45245;51.538;11.870;2022-09-09T05:29:56;1.42;;;1.33;;
59440;SDS011;45245;51.538;11.870;2022-09-09T05:32:22;2.08;;;1.50;;
59440;SDS011;45245;51.538;11.870;2022-09-09T05:34:47;2.20;;;1.67;;
59440;SDS011;45245;51.538;11.870;2022-09-09T05:37:13;1.33;;;1.23;;
59440;SDS011;45245;51.538;11.870;2022-09-09T05:39:38;2.45;;;1.60;;
59440;SDS011;45245;51.538;11.870;2022-09-09T05:42:03;1.65;;;1.55;;
59440;SDS011;45245;51.538;11.870;2022-09-09T05:44:31;1.48;;;1.38;;
59440;SDS011;45245;51.538;11.870;2022-09-09T05:46:56;3.22;;;1.25;;
59440;SDS011;45245;51.538;11.870;2022-09-09T05:49:24;1.58;;;1.48;;
59440;SDS011;45245;51.538;11.870;2022-09-09T05:51:49;1.35;;;1.20;;
59440;SDS011;45245;51.538;11.870;2022-09-09T05:54:15;1.80;;;1.67;;
59440;SDS011;45245;51.538;11.870;2022-09-09T05:56:41;1.83;;;1.30;;
59440;SDS011;45245;51.538;11.870;2022-09-09T05:59:07;3.22;;;1.73;;
59440;SDS011;45245;51.538;11.870;2022-09-09T06:01:33;1.95;;;1.45;;
59440;SDS011;45245;51.538;11.870;2022-09-09T06:03:59;1.50;;;1.40;;
59440;SDS011;45245;51.538;11.870;2022-09-09T06:06:25;2.20;;;1.60;;
59440;SDS011;45245;51.538;11.870;2022-09-09T06:08:55;1.98;;;1.65;;
59440;SDS011;45245;51.538;11.870;2022-09-09T06:11:26;1.90;;;1.50;;
59440;SDS011;45245;51.538;11.870;2022-09-09T06:13:55;1.33;;;1.23;;
59440;SDS011;45245;51.538;11.870;2022-09-09T06:16:22;1.80;;;1.50;;
59440;SDS011;45245;51.538;11.870;2022-09-09T06:18:52;2.45;;;1.60;;
59440;SDS011;45245;51.538;11.870;2022-09-09T06:21:29;1.52;;;1.40;;
59440;SDS011;45245;51.538;11.870;2022-09-09T06:23:57;2.00;;;1.60;;
59440;SDS011;45245;51.538;11.870;2022-09-09T06:26:24;2.10;;;1.70;;
59440;SDS011;45245;51.538;11.870;2022-09-09T06:28:51;1.42;;;1.33;;
59440;SDS011;45245;51.538;11.870;2022-09-09T06:31:18;1.48;;;1.38;;
59440;SDS011;45245;51.538;11.870;2022-09-09T06:33:47;2.05;;;1.60;;
59440;SDS011;45245;51.538;11.870;2022-09-09T06:36:16;2.00;;;1.60;;
59440;SDS011;45245;51.538;11.870;2022-09-09T06:38:43;1.65;;;1.55;;
59440;SDS011;45245;51.538;11.870;2022-09-09T06:41:10;3.90;;;1.67;;
59440;SDS011;45245;51.538;11.870;2022-09-09T06:43:39;2.15;;;1.95;;
59440;SDS011;45245;51.538;11.870;2022-09-09T06:46:06;1.50;;;1.40;;
59440;SDS011;45245;51.538;11.870;2022-09-09T06:48:33;3.10;;;1.45;;
59440;SDS011;45245;51.538;11.870;2022-09-09T06:51:05;2.50;;;1.45;;
59440;SDS011;45245;51.538;11.870;2022-09-09T06:53:36;1.48;;;1.35;;
59440;SDS011;45245;51.538;11.870;2022-09-09T06:58:48;2.05;;;1.85;;
59440;SDS011;45245;51.538;11.870;2022-09-09T07:01:15;1.60;;;1.50;;
59440;SDS011;45245;51.538;11.870;2022-09-09T07:43:53;1.92;;;1.70;;
59440;SDS011;45245;51.538;11.870;2022-09-09T07:46:19;2.85;;;1.70;;
59440;SDS011;45245;51.538;11.870;2022-09-09T07:48:45;3.63;;;1.60;;
59440;SDS011;45245;51.538;11.870;2022-09-09T07:51:15;3.40;;;1.85;;
59440;SDS011;45245;51.538;11.870;2022-09-09T07:53:43;4.07;;;1.70;;
59440;SDS011;45245;51.538;11.870;2022-09-09T07:56:11;2.55;;;1.55;;
59440;SDS011;45245;51.538;11.870;2022-09-09T07:58:45;1.65;;;1.55;;
59440;SDS011;45245;51.538;11.870;2022-09-09T08:01:12;3.15;;;1.70;;
59440;SDS011;45245;51.538;11.870;2022-09-09T08:03:43;3.63;;;1.65;;
59440;SDS011;45245;51.538;11.870;2022-09-09T08:06:10;4.28;;;1.35;;
59440;SDS011;45245;51.538;11.870;2022-09-09T08:08:37;3.35;;;1.80;;
59440;SDS011;45245;51.538;11.870;2022-09-09T08:31:43;1.92;;;1.55;;
59440;SDS011;45245;51.538;11.870;2022-09-09T08:34:10;3.10;;;1.40;;
59440;SDS011;45245;51.538;11.870;2022-09-09T08:36:43;1.50;;;1.40;;
59440;SDS011;45245;51.538;11.870;2022-09-09T08:39:09;4.95;;;1.60;;
59440;SDS011;45245;51.538;11.870;2022-09-09T08:52:28;1.55;;;0.93;;
59440;SDS011;45245;51.538;11.870;2022-09-09T09:00:21;2.85;;;1.58;;
59440;SDS011;45245;51.538;11.870;2022-09-09T09:06:01;3.67;;;1.40;;
59440;SDS011;45245;51.538;11.870;2022-09-09T09:11:12;4.97;;;1.77;;
59440;SDS011;45245;51.538;11.870;2022-09-09T09:13:48;5.03;;;1.77;;
59440;SDS011;45245;51.538;11.870;2022-09-09T09:16:26;1.52;;;1.42;;
59440;SDS011;45245;51.538;11.870;2022-09-09T09:19:19;3.95;;;1.45;;
59440;SDS011;45245;51.538;11.870;2022-09-09T09:21:49;4.47;;;1.25;;
59440;SDS011;45245;51.538;11.870;2022-09-09T09:24:19;2.75;;;1.40;;
59440;SDS011;45245;51.538;11.870;2022-09-09T09:26:48;2.67;;;1.40;;
59440;SDS011;45245;51.538;11.870;2022-09-09T09:29:18;2.05;;;1.30;;
59440;SDS011;45245;51.538;11.870;2022-09-09T09:34:16;1.52;;;1.10;;
59440;SDS011;45245;51.538;11.870;2022-09-09T09:36:43;4.00;;;1.50;;
59440;SDS011;45245;51.538;11.870;2022-09-09T09:39:21;1.60;;;1.40;;
59440;SDS011;45245;51.538;11.870;2022-09-09T09:41:48;2.28;;;1.23;;
59440;SDS011;45245;51.538;11.870;2022-09-09T09:44:27;2.90;;;1.27;;
59440;SDS011;45245;51.538;11.870;2022-09-09T09:47:05;2.95;;;1.27;;
59440;SDS011;45245;51.538;11.870;2022-09-09T09:49:33;3.38;;;1.30;;
59440;SDS011;45245;51.538;11.870;2022-09-09T09:52:05;3.58;;;1.30;;
59440;SDS011;45245;51.538;11.870;2022-09-09T09:54:33;4.47;;;1.40;;
59440;SDS011;45245;51.538;11.870;2022-09-09T09:57:11;2.38;;;1.42;;
59440;SDS011;45245;51.538;11.870;2022-09-09T09:59:38;1.95;;;1.38;;
59440;SDS011;45245;51.538;11.870;2022-09-09T10:02:18;2.97;;;1.30;;
59440;SDS011;45245;51.538;11.870;2022-09-09T10:10:37;3.42;;;1.50;;
59440;SDS011;45245;51.538;11.870;2022-09-09T10:13:20;2.63;;;0.90;;
59440;SDS011;45245;51.538;11.870;2022-09-09T10:16:33;2.92;;;1.65;;
59440;SDS011;45245;51.538;11.870;2022-09-09T10:19:09;1.40;;;1.08;;
59440;SDS011;45245;51.538;11.870;2022-09-09T10:21:55;2.58;;;1.20;;
59440;SDS011;45245;51.538;11.870;2022-09-09T10:36:29;2.83;;;1.17;;
59440;SDS011;45245;51.538;11.870;2022-09-09T10:39:04;3.58;;;1.17;;
59440;SDS011;45245;51.538;11.870;2022-09-09T10:44:50;2.47;;;1.50;;
59440;SDS011;45245;51.538;11.870;2022-09-09T10:53:10;3.13;;;1.23;;
59440;SDS011;45245;51.538;11.870;2022-09-09T10:55:51;2.92;;;1.20;;
59440;SDS011;45245;51.538;11.870;2022-09-09T10:58:23;4.78;;;1.02;;
59440;SDS011;45245;51.538;11.870;2022-09-09T11:00:54;1.35;;;0.85;;
59440;SDS011;45245;51.538;11.870;2022-09-09T11:03:24;2.17;;;1.13;;
59440;SDS011;45245;51.538;11.870;2022-09-09T11:05:59;1.73;;;1.02;;
59440;SDS011;45245;51.538;11.870;2022-09-09T11:08:29;2.33;;;1.25;;
59440;SDS011;45245;51.538;11.870;2022-09-09T11:18:55;3.15;;;1.23;;
59440;SDS011;45245;51.538;11.870;2022-09-09T11:21:46;1.85;;;1.08;;
59440;SDS011;45245;51.538;11.870;2022-09-09T11:24:15;1.58;;;1.15;;
59440;SDS011;45245;51.538;11.870;2022-09-09T11:26:45;2.88;;;1.48;;
59440;SDS011;45245;51.538;11.870;2022-09-09T11:42:44;2.10;;;1.40;;
59440;SDS011;45245;51.538;11.870;2022-09-09T11:45:11;2.15;;;1.17;;
59440;SDS011;45245;51.538;11.870;2022-09-09T11:47:55;2.88;;;0.90;;
59440;SDS011;45245;51.538;11.870;2022-09-09T11:52:48;2.40;;;1.00;;
59440;SDS011;45245;51.538;11.870;2022-09-09T11:55:24;2.33;;;1.10;;
59440;SDS011;45245;51.538;11.870;2022-09-09T12:00:51;2.75;;;1.00;;
59440;SDS011;45245;51.538;11.870;2022-09-09T12:03:33;1.40;;;1.00;;
59440;SDS011;45245;51.538;11.870;2022-09-09T12:06:17;1.73;;;1.30;;
59440;SDS011;45245;51.538;11.870;2022-09-09T12:09:08;2.20;;;0.82;;
59440;SDS011;45245;51.538;11.870;2022-09-09T12:11:43;3.15;;;0.93;;
59440;SDS011;45245;51.538;11.870;2022-09-09T12:17:22;4.10;;;1.08;;
59440;SDS011;45245;51.538;11.870;2022-09-09T12:20:08;2.55;;;1.20;;
59440;SDS011;45245;51.538;11.870;2022-09-09T12:31:28;4.13;;;1.20;;
59440;SDS011;45245;51.538;11.870;2022-09-09T12:33:42;2.30;;;0.95;;
59440;SDS011;45245;51.538;11.870;2022-09-09T12:36:11;1.60;;;1.13;;
59440;SDS011;45245;51.538;11.870;2022-09-09T12:38:42;1.92;;;0.85;;
59440;SDS011;45245;51.538;11.870;2022-09-09T12:41:27;2.00;;;0.80;;
59440;SDS011;45245;51.538;11.870;2022-09-09T12:44:06;2.30;;;1.08;;
59440;SDS011;45245;51.538;11.870;2022-09-09T12:46:44;2.08;;;0.95;;
59440;SDS011;45245;51.538;11.870;2022-09-09T12:51:59;1.15;;;0.75;;
59440;SDS011;45245;51.538;11.870;2022-09-09T12:54:26;4.13;;;1.00;;
59440;SDS011;45245;51.538;11.870;2022-09-09T12:56:53;3.08;;;1.02;;
59440;SDS011;45245;51.538;11.870;2022-09-09T12:59:35;1.52;;;1.02;;
59440;SDS011;45245;51.538;11.870;2022-09-09T13:02:10;2.22;;;0.75;;
59440;SDS011;45245;51.538;11.870;2022-09-09T13:04:41;3.03;;;1.25;;
59440;SDS011;45245;51.538;11.870;2022-09-09T13:07:07;1.30;;;1.00;;
59440;SDS011;45245;51.538;11.870;2022-09-09T13:09:35;1.85;;;0.90;;
59440;SDS011;45245;51.538;11.870;2022-09-09T13:12:03;3.45;;;1.00;;
59440;SDS011;45245;51.538;11.870;2022-09-09T13:14:30;2.15;;;0.68;;
59440;SDS011;45245;51.538;11.870;2022-09-09T13:17:00;0.77;;;0.60;;
59440;SDS011;45245;51.538;11.870;2022-09-09T13:19:26;1.80;;;1.30;;
59440;SDS011;45245;51.538;11.870;2022-09-09T13:22:11;1.45;;;0.80;;
59440;SDS011;45245;51.538;11.870;2022-09-09T13:24:42;5.07;;;0.90;;
59440;SDS011;45245;51.538;11.870;2022-09-09T13:27:26;1.00;;;0.80;;
59440;SDS011;45245;51.538;11.870;2022-09-09T13:29:54;1.90;;;0.95;;
59440;SDS011;45245;51.538;11.870;2022-09-09T13:32:20;2.95;;;1.02;;
59440;SDS011;45245;51.538;11.870;2022-09-09T13:34:54;3.55;;;1.10;;
59440;SDS011;45245;51.538;11.870;2022-09-09T13:37:22;1.50;;;0.70;;
59440;SDS011;45245;51.538;11.870;2022-09-09T13:39:52;1.92;;;0.70;;
59440;SDS011;45245;51.538;11.870;2022-09-09T13:42:28;3.05;;;0.68;;
59440;SDS011;45245;51.538;11.870;2022-09-09T13:44:55;2.78;;;1.25;;
59440;SDS011;45245;51.538;11.870;2022-09-09T13:47:22;2.08;;;0.93;;
59440;SDS011;45245;51.538;11.870;2022-09-09T13:49:52;1.48;;;0.82;;
59440;SDS011;45245;51.538;11.870;2022-09-09T13:52:18;3.53;;;1.00;;
59440;SDS011;45245;51.538;11.870;2022-09-09T13:54:47;2.60;;;0.77;;
59440;SDS011;45245;51.538;11.870;2022-09-09T13:57:16;3.50;;;1.17;;
59440;SDS011;45245;51.538;11.870;2022-09-09T13:59:44;1.60;;;0.90;;
59440;SDS011;45245;51.538;11.870;2022-09-09T14:02:10;2.20;;;1.20;;
59440;SDS011;45245;51.538;11.870;2022-09-09T14:04:35;2.03;;;1.02;;
59440;SDS011;45245;51.538;11.870;2022-09-09T14:07:00;3.50;;;0.90;;
59440;SDS011;45245;51.538;11.870;2022-09-09T14:09:26;1.58;;;0.95;;
59440;SDS011;45245;51.538;11.870;2022-09-09T14:11:52;2.03;;;1.10;;
59440;SDS011;45245;51.538;11.870;2022-09-09T14:14:17;2.83;;;0.73;;
59440;SDS011;45245;51.538;11.870;2022-09-09T14:16:42;2.20;;;0.90;;
59440;SDS011;45245;51.538;11.870;2022-09-09T14:19:08;2.15;;;0.77;;
59440;SDS011;45245;51.538;11.870;2022-09-09T14:21:34;1.15;;;0.73;;
59440;SDS011;45245;51.538;11.870;2022-09-09T14:23:59;1.95;;;0.90;;
59440;SDS011;45245;51.538;11.870;2022-09-09T14:26:25;1.70;;;0.82;;
59440;SDS011;45245;51.538;11.870;2022-09-09T14:28:53;2.75;;;0.82;;
59440;SDS011;45245;51.538;11.870;2022-09-09T14:31:25;1.58;;;0.65;;
59440;SDS011;45245;51.538;11.870;2022-09-09T14:33:50;2.83;;;0.85;;
59440;SDS011;45245;51.538;11.870;2022-09-09T14:36:19;0.70;;;0.60;;
59440;SDS011;45245;51.538;11.870;2022-09-09T14:38:44;0.55;;;0.35;;
59440;SDS011;45245;51.538;11.870;2022-09-09T14:41:10;1.55;;;0.50;;
59440;SDS011;45245;51.538;11.870;2022-09-09T14:43:43;1.42;;;0.70;;
59440;SDS011;45245;51.538;11.870;2022-09-09T14:46:18;0.60;;;0.40;;
59440;SDS011;45245;51.538;11.870;2022-09-09T14:48:44;0.80;;;0.50;;
59440;SDS011;45245;51.538;11.870;2022-09-09T14:51:14;2.42;;;0.55;;
59440;SDS011;45245;51.538;11.870;2022-09-09T14:53:44;0.75;;;0.60;;
59440;SDS011;45245;51.538;11.870;2022-09-09T14:56:13;2.67;;;0.60;;
59440;SDS011;45245;51.538;11.870;2022-09-09T14:59:19;1.15;;;0.45;;
59440;SDS011;45245;51.538;11.870;2022-09-09T15:01:45;0.65;;;0.40;;
59440;SDS011;45245;51.538;11.870;2022-09-09T15:04:11;0.32;;;0.25;;
59440;SDS011;45245;51.538;11.870;2022-09-09T15:06:39;0.88;;;0.43;;
59440;SDS011;45245;51.538;11.870;2022-09-09T15:09:07;1.30;;;0.30;;
59440;SDS011;45245;51.538;11.870;2022-09-09T15:11:34;0.88;;;0.40;;
59440;SDS011;45245;51.538;11.870;2022-09-09T15:14:03;2.80;;;0.50;;
59440;SDS011;45245;51.538;11.870;2022-09-09T15:16:31;1.35;;;0.30;;
59440;SDS011;45245;51.538;11.870;2022-09-09T15:18:57;0.90;;;0.50;;
59440;SDS011;45245;51.538;11.870;2022-09-09T15:21:24;1.75;;;0.50;;
59440;SDS011;45245;51.538;11.870;2022-09-09T15:23:52;0.85;;;0.60;;
59440;SDS011;45245;51.538;11.870;2022-09-09T15:26:17;1.33;;;0.50;;
59440;SDS011;45245;51.538;11.870;2022-09-09T15:28:44;1.23;;;0.60;;
59440;SDS011;45245;51.538;11.870;2022-09-09T15:31:20;3.40;;;0.52;;
59440;SDS011;45245;51.538;11.870;2022-09-09T15:36:26;2.00;;;0.80;;
59440;SDS011;45245;51.538;11.870;2022-09-09T15:38:59;0.47;;;0.30;;
59440;SDS011;45245;51.538;11.870;2022-09-09T15:41:25;2.35;;;0.50;;
59440;SDS011;45245;51.538;11.870;2022-09-09T15:43:51;1.52;;;0.60;;
59440;SDS011;45245;51.538;11.870;2022-09-09T15:48:42;0.83;;;0.40;;
59440;SDS011;45245;51.538;11.870;2022-09-09T15:51:09;2.75;;;0.60;;
59440;SDS011;45245;51.538;11.870;2022-09-09T15:53:36;0.38;;;0.38;;
59440;SDS011;45245;51.538;11.870;2022-09-09T15:56:04;0.75;;;0.30;;
59440;SDS011;45245;51.538;11.870;2022-09-09T15:58:30;1.15;;;0.47;;
59440;SDS011;45245;51.538;11.870;2022-09-09T16:01:03;0.77;;;0.22;;
59440;SDS011;45245;51.538;11.870;2022-09-09T16:03:35;1.08;;;0.35;;
59440;SDS011;45245;51.538;11.870;2022-09-09T16:06:06;3.17;;;0.50;;
59440;SDS011;45245;51.538;11.870;2022-09-09T16:08:35;0.98;;;0.40;;
59440;SDS011;45245;51.538;11.870;2022-09-09T16:11:04;1.17;;;0.50;;
59440;SDS011;45245;51.538;11.870;2022-09-09T16:13:37;1.02;;;0.52;;
59440;SDS011;45245;51.538;11.870;2022-09-09T16:16:04;0.52;;;0.52;;
59440;SDS011;45245;51.538;11.870;2022-09-09T16:18:45;0.43;;;0.30;;
59440;SDS011;45245;51.538;11.870;2022-09-09T16:21:22;0.85;;;0.50;;
59440;SDS011;45245;51.538;11.870;2022-09-09T16:23:50;0.65;;;0.30;;
59440;SDS011;45245;51.538;11.870;2022-09-09T16:26:17;1.15;;;0.50;;
59440;SDS011;45245;51.538;11.870;2022-09-09T16:28:44;0.85;;;0.43;;
59440;SDS011;45245;51.538;11.870;2022-09-09T16:31:17;1.40;;;0.50;;
59440;SDS011;45245;51.538;11.870;2022-09-09T16:33:44;1.17;;;0.40;;
59440;SDS011;45245;51.538;11.870;2022-09-09T16:36:22;1.50;;;0.43;;
59440;SDS011;45245;51.538;11.870;2022-09-09T16:38:52;1.65;;;0.30;;
59440;SDS011;45245;51.538;11.870;2022-09-09T16:43:45;1.95;;;0.43;;
59440;SDS011;45245;51.538;11.870;2022-09-09T16:46:15;1.27;;;0.50;;
59440;SDS011;45245;51.538;11.870;2022-09-09T16:48:42;0.43;;;0.30;;
59440;SDS011;45245;51.538;11.870;2022-09-09T16:51:24;0.57;;;0.35;;
59440;SDS011;45245;51.538;11.870;2022-09-09T16:53:51;0.85;;;0.40;;
59440;SDS011;45245;51.538;11.870;2022-09-09T16:56:18;1.15;;;0.50;;
59440;SDS011;45245;51.538;11.870;2022-09-09T16:58:48;2.28;;;0.52;;
59440;SDS011;45245;51.538;11.870;2022-09-09T17:01:15;1.83;;;0.50;;
59440;SDS011;45245;51.538;11.870;2022-09-09T17:03:40;1.95;;;0.60;;
59440;SDS011;45245;51.538;11.870;2022-09-09T17:06:12;2.33;;;0.60;;
59440;SDS011;45245;51.538;11.870;2022-09-09T17:08:39;0.90;;;0.35;;
59440;SDS011;45245;51.538;11.870;2022-09-09T17:11:15;2.05;;;0.47;;
59440;SDS011;45245;51.538;11.870;2022-09-09T17:13:43;0.85;;;0.52;;
59440;SDS011;45245;51.538;11.870;2022-09-09T17:16:10;1.27;;;0.60;;
59440;SDS011;45245;51.538;11.870;2022-09-09T17:18:35;1.95;;;0.55;;
59440;SDS011;45245;51.538;11.870;2022-09-09T17:21:04;2.67;;;0.82;;
59440;SDS011;45245;51.538;11.870;2022-09-09T17:23:32;1.63;;;0.35;;
59440;SDS011;45245;51.538;11.870;2022-09-09T17:25:59;1.55;;;0.60;;
59440;SDS011;45245;51.538;11.870;2022-09-09T17:28:25;1.35;;;0.68;;
59440;SDS011;45245;51.538;11.870;2022-09-09T17:33:21;1.55;;;0.77;;
59440;SDS011;45245;51.538;11.870;2022-09-09T17:35:46;1.08;;;0.52;;
59440;SDS011;45245;51.538;11.870;2022-09-09T17:38:14;1.40;;;1.00;;
59440;SDS011;45245;51.538;11.870;2022-09-09T17:40:39;0.90;;;0.60;;
59440;SDS011;45245;51.538;11.870;2022-09-09T17:43:05;0.43;;;0.40;;
59440;SDS011;45245;51.538;11.870;2022-09-09T17:45:30;1.58;;;0.70;;
59440;SDS011;45245;51.538;11.870;2022-09-09T17:47:55;2.67;;;0.70;;
59440;SDS011;45245;51.538;11.870;2022-09-09T17:50:21;1.48;;;0.60;;
59440;SDS011;45245;51.538;11.870;2022-09-09T17:52:47;3.38;;;0.63;;
59440;SDS011;45245;51.538;11.870;2022-09-09T17:55:12;1.20;;;0.50;;
59440;SDS011;45245;51.538;11.870;2022-09-09T17:57:37;1.15;;;0.60;;
59440;SDS011;45245;51.538;11.870;2022-09-09T18:00:04;0.80;;;0.50;;
59440;SDS011;45245;51.538;11.870;2022-09-09T18:05:22;1.55;;;0.80;;
59440;SDS011;45245;51.538;11.870;2022-09-09T18:07:47;1.83;;;0.70;;
59440;SDS011;45245;51.538;11.870;2022-09-09T18:10:13;1.58;;;0.60;;
59440;SDS011;45245;51.538;11.870;2022-09-09T18:12:38;0.70;;;0.70;;
59440;SDS011;45245;51.538;11.870;2022-09-09T18:15:04;0.60;;;0.40;;
59440;SDS011;45245;51.538;11.870;2022-09-09T18:17:29;1.45;;;0.73;;
59440;SDS011;45245;51.538;11.870;2022-09-09T18:19:56;1.08;;;0.63;;
59440;SDS011;45245;51.538;11.870;2022-09-09T18:22:21;1.13;;;0.70;;
59440;SDS011;45245;51.538;11.870;2022-09-09T18:24:47;1.65;;;0.60;;